createdAt,value
2023-05-08T00:00:50.305Z,9.46
2023-05-08T00:01:50.298Z,9.42
2023-05-08T00:02:50.433Z,9.47
2023-05-08T00:03:50.391Z,9.53
2023-05-08T00:04:50.288Z,9.53
2023-05-08T00:05:50.272Z,9.53
2023-05-08T00:06:50.233Z,9.53
2023-05-08T00:07:50.247Z,9.53
2023-05-08T00:08:50.227Z,9.50
2023-05-08T00:09:50.225Z,9.53
2023-05-08T00:10:50.191Z,9.50
2023-05-08T00:11:50.173Z,9.53
2023-05-08T00:12:50.362Z,9.61
2023-05-08T00:13:50.227Z,9.57
2023-05-08T00:14:51.360Z,9.47
2023-05-08T00:15:51.905Z,9.40
2023-05-08T00:16:50.299Z,9.43
2023-05-08T00:17:50.403Z,9.48
2023-05-08T00:18:50.177Z,9.57
2023-05-08T00:19:50.094Z,9.47
2023-05-08T00:20:50.334Z,9.51
2023-05-08T00:21:50.076Z,9.53
2023-05-08T00:22:50.068Z,9.64
2023-05-08T00:23:50.046Z,9.69
2023-05-08T00:24:50.105Z,9.61
2023-05-08T00:25:50.037Z,9.65
2023-05-08T00:26:50.222Z,9.74
2023-05-08T00:27:49.995Z,9.68
2023-05-08T00:28:50.024Z,9.65
2023-05-08T00:29:50.019Z,9.60
2023-05-08T00:30:49.994Z,9.58
2023-05-08T00:31:49.990Z,9.32
2023-05-08T00:32:49.986Z,9.23
2023-05-08T00:33:49.922Z,9.08
2023-05-08T00:34:49.967Z,9.11
2023-05-08T00:35:49.896Z,9.13
2023-05-08T00:36:49.922Z,9.18
2023-05-08T00:37:49.880Z,9.13
2023-05-08T00:38:49.869Z,9.10
2023-05-08T00:39:49.854Z,9.13
2023-05-08T00:40:49.874Z,9.13
2023-05-08T00:41:49.834Z,9.20
2023-05-08T00:42:49.823Z,9.31
2023-05-08T00:43:49.809Z,9.36
2023-05-08T00:44:49.791Z,9.48
2023-05-08T00:45:49.882Z,9.51
2023-05-08T00:46:49.789Z,9.51
2023-05-08T00:47:49.764Z,9.68
2023-05-08T00:48:49.752Z,9.65
2023-05-08T00:49:49.735Z,9.75
2023-05-08T00:50:49.745Z,9.78
2023-05-08T00:51:49.743Z,9.74
2023-05-08T00:52:49.761Z,9.65
2023-05-08T00:53:49.729Z,9.72
2023-05-08T00:54:49.676Z,9.53
2023-05-08T00:55:49.671Z,9.51
2023-05-08T00:56:49.685Z,9.50
2023-05-08T00:57:49.650Z,9.56
2023-05-08T00:58:49.626Z,9.43
2023-05-08T00:59:49.631Z,9.46
2023-05-08T01:00:49.604Z,9.46
2023-05-08T01:01:49.724Z,9.50
2023-05-08T01:02:49.660Z,9.42
2023-05-08T01:03:49.736Z,9.42
2023-05-08T01:04:49.563Z,9.33
2023-05-08T01:05:49.554Z,9.36
2023-05-08T01:06:49.595Z,9.46
2023-05-08T01:07:49.545Z,9.47
2023-05-08T01:08:49.501Z,9.47
2023-05-08T01:09:49.487Z,9.54
2023-05-08T01:10:49.502Z,9.65
2023-05-08T01:11:49.465Z,9.58
2023-05-08T01:12:50.155Z,9.58
2023-05-08T01:13:49.456Z,9.56
2023-05-08T01:14:49.434Z,9.58
2023-05-08T01:15:49.484Z,9.58
2023-05-08T01:16:49.435Z,9.66
2023-05-08T01:17:49.504Z,9.65
2023-05-08T01:18:49.404Z,9.68
2023-05-08T01:19:49.382Z,9.71
2023-05-08T01:20:49.376Z,9.76
2023-05-08T01:21:49.921Z,9.75
2023-05-08T01:22:49.355Z,9.78
2023-05-08T01:23:49.357Z,9.76
2023-05-08T01:24:49.351Z,9.68
2023-05-08T01:25:49.310Z,9.61
2023-05-08T01:26:49.305Z,9.71
2023-05-08T01:27:49.325Z,9.75
2023-05-08T01:28:49.301Z,9.78
2023-05-08T01:29:49.269Z,9.68
2023-05-08T01:30:49.265Z,9.72
2023-05-08T01:31:49.229Z,9.69
2023-05-08T01:32:49.290Z,9.57
2023-05-08T01:33:49.258Z,9.43
2023-05-08T01:34:49.222Z,9.32
2023-05-08T01:35:49.200Z,9.20
2023-05-08T01:36:49.173Z,9.33
2023-05-08T01:37:49.207Z,9.13
2023-05-08T01:38:49.202Z,9.13
2023-05-08T01:39:49.147Z,9.08
2023-05-08T01:40:49.130Z,9.11
2023-05-08T01:41:49.149Z,8.95
2023-05-08T01:42:49.098Z,8.98
2023-05-08T01:43:49.145Z,8.99
2023-05-08T01:44:49.101Z,9.11
2023-05-08T01:45:49.073Z,9.18
2023-05-08T01:46:49.120Z,9.18
2023-05-08T01:47:49.083Z,9.15
2023-05-08T01:48:49.087Z,9.20
2023-05-08T01:49:49.033Z,9.31
2023-05-08T01:50:49.023Z,9.31
2023-05-08T01:51:49.006Z,9.40
2023-05-08T01:52:48.996Z,9.40
2023-05-08T01:53:48.990Z,9.42
2023-05-08T01:54:49.023Z,9.39
2023-05-08T01:55:48.954Z,9.42
2023-05-08T01:56:48.940Z,9.47
2023-05-08T01:57:48.921Z,9.50
2023-05-08T01:58:48.906Z,9.46
2023-05-08T01:59:48.967Z,9.43
2023-05-08T02:00:48.922Z,9.43
2023-05-08T02:01:48.917Z,9.38
2023-05-08T02:02:48.936Z,9.43
2023-05-08T02:03:48.889Z,9.40
2023-05-08T02:04:48.852Z,9.40
2023-05-08T02:05:48.885Z,9.28
2023-05-08T02:06:48.825Z,9.31
2023-05-08T02:07:48.798Z,9.38
2023-05-08T02:08:48.812Z,9.23
2023-05-08T02:09:48.789Z,9.21
2023-05-08T02:10:48.790Z,9.21
2023-05-08T02:11:48.783Z,9.28
2023-05-08T02:12:48.797Z,9.26
2023-05-08T02:13:48.742Z,9.17
2023-05-08T02:14:48.739Z,9.14
2023-05-08T02:15:48.754Z,9.10
2023-05-08T02:16:48.762Z,9.14
2023-05-08T02:17:48.721Z,9.14
2023-05-08T02:18:48.668Z,9.10
2023-05-08T02:19:48.663Z,9.01
2023-05-08T02:20:48.708Z,9.08
2023-05-08T02:21:48.661Z,9.11
2023-05-08T02:22:48.618Z,9.18
2023-05-08T02:23:48.635Z,9.20
2023-05-08T02:24:48.629Z,9.23
2023-05-08T02:25:49.736Z,9.33
2023-05-08T02:26:48.633Z,9.36
2023-05-08T02:27:48.590Z,9.43
2023-05-08T02:28:48.592Z,9.43
2023-05-08T02:29:48.542Z,9.39
2023-05-08T02:30:48.558Z,9.47
2023-05-08T02:31:48.631Z,9.35
2023-05-08T02:32:48.597Z,9.28
2023-05-08T02:33:48.492Z,9.33
2023-05-08T02:35:01.964Z,9.36
2023-05-08T02:35:49.477Z,9.47
2023-05-08T02:36:48.472Z,9.46
2023-05-08T02:37:48.502Z,9.38
2023-05-08T02:38:48.446Z,9.48
2023-05-08T02:39:48.446Z,9.39
2023-05-08T02:40:48.448Z,9.40
2023-05-08T02:41:48.476Z,9.56
2023-05-08T02:42:48.396Z,9.43
2023-05-08T02:43:48.400Z,9.48
2023-05-08T02:44:48.397Z,9.48
2023-05-08T02:45:48.419Z,9.50
2023-05-08T02:46:48.341Z,9.57
2023-05-08T02:47:48.473Z,9.53
2023-05-08T02:48:48.367Z,9.51
2023-05-08T02:49:48.345Z,9.35
2023-05-08T02:50:48.338Z,9.26
2023-05-08T02:51:48.292Z,9.13
2023-05-08T02:52:48.413Z,9.14
2023-05-08T02:53:48.311Z,9.23
2023-05-08T02:54:48.260Z,9.08
2023-05-08T02:55:48.282Z,8.92
2023-05-08T02:56:48.229Z,8.83
2023-05-08T02:57:48.249Z,8.80
2023-05-08T02:58:48.255Z,8.76
2023-05-08T02:59:48.190Z,8.58
2023-05-08T03:00:48.180Z,8.53
2023-05-08T03:01:48.305Z,8.55
2023-05-08T03:02:48.269Z,8.50
2023-05-08T03:03:48.318Z,8.45
2023-05-08T03:04:48.131Z,8.48
2023-05-08T03:05:48.145Z,8.45
2023-05-08T03:06:48.105Z,8.59
2023-05-08T03:07:48.106Z,8.55
2023-05-08T03:08:48.093Z,8.63
2023-05-08T03:09:48.087Z,8.62
2023-05-08T03:10:48.061Z,8.65
2023-05-08T03:11:48.195Z,8.71
2023-05-08T03:12:48.053Z,8.79
2023-05-08T03:13:48.027Z,8.89
2023-05-08T03:14:48.042Z,8.99
2023-05-08T03:15:48.024Z,9.02
2023-05-08T03:16:47.975Z,8.99
2023-05-08T03:17:47.994Z,8.94
2023-05-08T03:18:47.981Z,8.98
2023-05-08T03:19:47.960Z,8.96
2023-05-08T03:20:48.007Z,9.10
2023-05-08T03:21:47.923Z,9.10
2023-05-08T03:22:47.917Z,8.98
2023-05-08T03:23:47.901Z,8.83
2023-05-08T03:24:47.943Z,8.86
2023-05-08T03:25:47.886Z,8.84
2023-05-08T03:26:47.892Z,8.94
2023-05-08T03:27:47.858Z,9.08
2023-05-08T03:28:47.857Z,9.04
2023-05-08T03:29:47.861Z,9.18
2023-05-08T03:30:47.831Z,9.14
2023-05-08T03:31:47.845Z,9.24
2023-05-08T03:32:47.840Z,9.26
2023-05-08T03:33:47.792Z,9.29
2023-05-08T03:34:47.825Z,9.28
2023-05-08T03:35:47.771Z,9.33
2023-05-08T03:36:47.743Z,9.38
2023-05-08T03:37:47.735Z,9.42
2023-05-08T03:38:47.740Z,9.50
2023-05-08T03:39:47.719Z,9.57
2023-05-08T03:40:47.754Z,9.43
2023-05-08T03:41:47.696Z,9.47
2023-05-08T03:42:47.683Z,9.51
2023-05-08T03:43:47.653Z,9.58
2023-05-08T03:44:47.659Z,9.56
2023-05-08T03:45:48.689Z,9.54
2023-05-08T03:46:47.685Z,9.65
2023-05-08T03:47:47.639Z,9.61
2023-05-08T03:48:47.597Z,9.64
2023-05-08T03:49:47.587Z,9.57
2023-05-08T03:50:47.599Z,9.57
2023-05-08T03:51:47.588Z,9.56
2023-05-08T03:52:47.576Z,9.50
2023-05-08T03:53:47.576Z,9.61
2023-05-08T03:54:47.548Z,9.54
2023-05-08T03:55:47.523Z,9.51
2023-05-08T03:56:47.596Z,9.32
2023-05-08T03:57:47.505Z,9.01
2023-05-08T03:58:47.499Z,9.05
2023-05-08T03:59:47.498Z,8.99
2023-05-08T04:00:47.475Z,8.86
2023-05-08T04:01:47.539Z,8.86
2023-05-08T04:02:47.551Z,8.79
2023-05-08T04:03:47.605Z,8.94
2023-05-08T04:04:47.454Z,8.83
2023-05-08T04:05:47.405Z,8.92
2023-05-08T04:06:50.378Z,8.87
2023-05-08T04:07:47.392Z,8.79
2023-05-08T04:08:47.396Z,8.95
2023-05-08T04:09:47.382Z,8.92
2023-05-08T04:10:47.353Z,8.94
2023-05-08T04:11:47.393Z,8.86
2023-05-08T04:12:47.351Z,8.84
2023-05-08T04:13:47.320Z,8.76
2023-05-08T04:14:47.316Z,8.79
2023-05-08T04:15:47.715Z,8.80
2023-05-08T04:16:47.326Z,8.73
2023-05-08T04:17:47.339Z,8.79
2023-05-08T04:18:47.260Z,8.84
2023-05-08T04:19:47.274Z,8.86
2023-05-08T04:20:47.243Z,8.80
2023-05-08T04:21:47.240Z,8.95
2023-05-08T04:22:47.220Z,8.96
2023-05-08T04:23:47.204Z,9.01
2023-05-08T04:24:47.208Z,9.04
2023-05-08T04:25:47.172Z,9.18
2023-05-08T04:26:47.173Z,9.20
2023-05-08T04:27:47.228Z,9.24
2023-05-08T04:28:47.149Z,9.35
2023-05-08T04:29:47.138Z,9.50
2023-05-08T04:30:47.135Z,9.54
2023-05-08T04:31:47.201Z,9.51
2023-05-08T04:32:47.235Z,9.48
2023-05-08T04:33:47.089Z,9.40
2023-05-08T04:34:47.066Z,9.42
2023-05-08T04:35:47.060Z,9.53
2023-05-08T04:36:47.064Z,9.51
2023-05-08T04:37:47.061Z,9.58
2023-05-08T04:38:47.054Z,9.69
2023-05-08T04:39:47.028Z,9.78
2023-05-08T04:40:47.007Z,9.90
2023-05-08T04:41:47.036Z,9.89
2023-05-08T04:42:46.991Z,9.93
2023-05-08T04:43:47.018Z,10.01
2023-05-08T04:44:46.955Z,9.91
2023-05-08T04:45:47.016Z,9.97
2023-05-08T04:46:46.930Z,10.23
2023-05-08T04:47:46.995Z,10.07
2023-05-08T04:48:46.980Z,9.78
2023-05-08T04:49:46.899Z,9.61
2023-05-08T04:50:46.896Z,9.58
2023-05-08T04:51:46.890Z,9.65
2023-05-08T04:52:46.858Z,9.53
2023-05-08T04:53:46.883Z,9.39
2023-05-08T04:54:46.878Z,9.36
2023-05-08T04:55:46.844Z,9.35
2023-05-08T04:56:46.827Z,9.23
2023-05-08T04:57:46.826Z,9.20
2023-05-08T04:58:46.817Z,9.33
2023-05-08T04:59:46.843Z,9.36
2023-05-08T05:00:46.875Z,9.60
2023-05-08T05:01:47.570Z,9.87
2023-05-08T05:02:46.805Z,9.94
2023-05-08T05:03:46.882Z,10.14
2023-05-08T05:04:46.777Z,10.27
2023-05-08T05:05:46.717Z,10.32
2023-05-08T05:06:46.706Z,10.27
2023-05-08T05:07:46.715Z,10.22
2023-05-08T05:08:46.700Z,10.15
2023-05-08T05:09:46.663Z,10.29
2023-05-08T05:10:47.449Z,10.44
2023-05-08T05:11:46.643Z,10.94
2023-05-08T05:12:46.623Z,11.51
2023-05-08T05:13:46.617Z,12.28
2023-05-08T05:14:46.612Z,12.60
2023-05-08T05:15:46.685Z,12.74
2023-05-08T05:16:46.638Z,12.57
2023-05-08T05:17:46.574Z,12.49
2023-05-08T05:18:46.567Z,13.00
2023-05-08T05:19:46.543Z,13.29
2023-05-08T05:20:46.590Z,14.14
2023-05-08T05:21:46.526Z,14.15
2023-05-08T05:22:46.507Z,14.25
2023-05-08T05:23:46.506Z,14.42
2023-05-08T05:24:46.490Z,14.50
2023-05-08T05:25:46.494Z,14.86
2023-05-08T05:26:46.470Z,15.28
2023-05-08T05:27:46.460Z,15.78
2023-05-08T05:28:46.442Z,15.78
2023-05-08T05:29:46.420Z,15.38
2023-05-08T05:30:46.420Z,15.38
2023-05-08T05:31:46.495Z,15.71
2023-05-08T05:32:46.390Z,15.57
2023-05-08T05:33:46.392Z,15.86
2023-05-08T05:34:47.367Z,15.62
2023-05-08T05:35:46.349Z,15.44
2023-05-08T05:36:46.386Z,15.93
2023-05-08T05:37:46.380Z,16.61
2023-05-08T05:38:46.345Z,17.01
2023-05-08T05:39:46.322Z,16.94
2023-05-08T05:40:46.293Z,16.41
2023-05-08T05:41:46.307Z,15.90
2023-05-08T05:42:46.327Z,16.25
2023-05-08T05:43:46.272Z,16.07
2023-05-08T05:44:46.248Z,15.51
2023-05-08T05:45:46.235Z,15.32
2023-05-08T05:46:46.265Z,15.64
2023-05-08T05:47:46.322Z,16.31
2023-05-08T05:48:46.223Z,16.46
2023-05-08T05:49:46.210Z,16.67
2023-05-08T05:50:46.381Z,16.93
2023-05-08T05:51:46.178Z,17.01
2023-05-08T05:52:46.175Z,15.02
2023-05-08T05:53:46.165Z,13.91
2023-05-08T05:54:46.149Z,13.71
2023-05-08T05:55:46.160Z,13.79
2023-05-08T05:56:46.134Z,14.17
2023-05-08T05:57:46.114Z,14.55
2023-05-08T05:58:46.114Z,14.14
2023-05-08T05:59:46.081Z,13.97
2023-05-08T06:00:46.082Z,13.66
2023-05-08T06:01:46.112Z,13.07
2023-05-08T06:02:46.442Z,12.28
2023-05-08T06:03:46.198Z,11.58
2023-05-08T06:04:46.054Z,11.04
2023-05-08T06:05:46.031Z,10.94
2023-05-08T06:06:46.023Z,10.89
2023-05-08T06:07:46.023Z,11.03
2023-05-08T06:08:46.033Z,10.86
2023-05-08T06:09:45.997Z,11.09
2023-05-08T06:10:46.003Z,11.02
2023-05-08T06:11:45.970Z,10.81
2023-05-08T06:12:46.025Z,11.07
2023-05-08T06:13:47.208Z,11.32
2023-05-08T06:14:45.987Z,11.46
2023-05-08T06:15:45.944Z,11.69
2023-05-08T06:16:45.981Z,12.31
2023-05-08T06:17:45.954Z,13.48
2023-05-08T06:18:45.895Z,13.75
2023-05-08T06:19:45.918Z,14.04
2023-05-08T06:20:45.861Z,14.10
2023-05-08T06:21:45.854Z,13.85
2023-05-08T06:22:45.892Z,14.18
2023-05-08T06:23:45.836Z,14.81
2023-05-08T06:24:45.864Z,14.81
2023-05-08T06:25:45.913Z,14.32
2023-05-08T06:26:45.831Z,13.84
2023-05-08T06:27:45.802Z,13.66
2023-05-08T06:28:45.817Z,13.69
2023-05-08T06:29:45.809Z,13.82
2023-05-08T06:30:45.838Z,14.20
2023-05-08T06:31:45.810Z,13.32
2023-05-08T06:32:45.798Z,12.92
2023-05-08T06:33:45.722Z,12.68
2023-05-08T06:34:45.740Z,13.22
2023-05-08T06:35:45.720Z,13.48
2023-05-08T06:36:45.718Z,14.15
2023-05-08T06:37:45.693Z,13.62
2023-05-08T06:38:45.678Z,13.49
2023-05-08T06:39:45.654Z,13.92
2023-05-08T06:40:45.665Z,14.46
2023-05-08T06:41:45.657Z,15.34
2023-05-08T06:42:45.627Z,15.87
2023-05-08T06:43:45.625Z,16.09
2023-05-08T06:44:45.617Z,15.69
2023-05-08T06:45:45.597Z,15.41
2023-05-08T06:46:45.689Z,15.03
2023-05-08T06:47:45.633Z,15.35
2023-05-08T06:48:45.576Z,15.90
2023-05-08T06:49:45.555Z,15.69
2023-05-08T06:50:45.550Z,16.01
2023-05-08T06:51:45.575Z,16.11
2023-05-08T06:52:45.565Z,15.20
2023-05-08T06:53:45.517Z,15.41
2023-05-08T06:54:45.509Z,15.68
2023-05-08T06:55:45.505Z,15.47
2023-05-08T06:56:45.480Z,15.25
2023-05-08T06:57:45.538Z,15.49
2023-05-08T06:58:53.708Z,15.10
2023-05-08T06:59:46.441Z,14.72
2023-05-08T07:00:45.684Z,15.64
2023-05-08T07:01:45.447Z,16.31
2023-05-08T07:02:45.554Z,15.68
2023-05-08T07:03:45.406Z,15.41
2023-05-08T07:04:45.442Z,15.14
2023-05-08T07:05:45.396Z,15.10
2023-05-08T07:06:45.374Z,15.38
2023-05-08T07:07:45.373Z,15.50
2023-05-08T07:08:45.363Z,15.80
2023-05-08T07:09:45.522Z,15.97
2023-05-08T07:10:46.324Z,15.76
2023-05-08T07:11:45.367Z,15.41
2023-05-08T07:12:45.316Z,14.95
2023-05-08T07:13:45.322Z,14.78
2023-05-08T07:14:45.291Z,14.86
2023-05-08T07:15:45.317Z,14.72
2023-05-08T07:16:45.281Z,15.03
2023-05-08T07:17:45.322Z,14.91
2023-05-08T07:18:45.281Z,14.65
2023-05-08T07:19:45.251Z,14.98
2023-05-08T07:20:45.215Z,14.70
2023-05-08T07:21:45.246Z,14.40
2023-05-08T07:22:45.225Z,13.66
2023-05-08T07:23:45.184Z,13.33
2023-05-08T07:24:45.236Z,13.59
2023-05-08T07:25:45.169Z,13.70
2023-05-08T07:26:45.148Z,13.55
2023-05-08T07:27:45.163Z,13.67
2023-05-08T07:28:45.126Z,13.62
2023-05-08T07:29:45.160Z,13.52
2023-05-08T07:30:45.118Z,13.32
2023-05-08T07:31:45.116Z,13.39
2023-05-08T07:32:45.126Z,13.17
2023-05-08T07:33:45.077Z,13.48
2023-05-08T07:34:45.069Z,13.29
2023-05-08T07:35:45.094Z,13.48
2023-05-08T07:36:45.060Z,13.62
2023-05-08T07:37:45.056Z,13.70
2023-05-08T07:38:45.023Z,13.69
2023-05-08T07:39:45.022Z,13.52
2023-05-08T07:40:45.052Z,13.52
2023-05-08T07:41:45.375Z,13.45
2023-05-08T07:42:44.998Z,13.23
2023-05-08T07:43:44.982Z,13.20
2023-05-08T07:44:53.844Z,13.32
2023-05-08T07:45:44.971Z,13.11
2023-05-08T07:46:45.001Z,13.19
2023-05-08T07:47:44.937Z,13.20
2023-05-08T07:48:44.912Z,13.11
2023-05-08T07:49:44.899Z,13.19
2023-05-08T07:50:44.879Z,12.97
2023-05-08T07:51:44.909Z,13.08
2023-05-08T07:52:44.862Z,13.28
2023-05-08T07:53:44.859Z,13.29
2023-05-08T07:54:44.852Z,13.32
2023-05-08T07:55:45.391Z,13.22
2023-05-08T07:56:44.853Z,13.15
2023-05-08T07:57:44.815Z,12.90
2023-05-08T07:58:44.797Z,13.00
2023-05-08T07:59:44.784Z,12.92
2023-05-08T08:00:44.794Z,12.87
2023-05-08T08:01:44.844Z,12.79
2023-05-08T08:02:45.049Z,12.89
2023-05-08T08:03:44.800Z,12.74
2023-05-08T08:04:45.200Z,12.60
2023-05-08T08:05:44.737Z,12.60
2023-05-08T08:06:44.743Z,12.64
2023-05-08T08:07:44.769Z,12.56
2023-05-08T08:08:44.696Z,12.62
2023-05-08T08:09:44.698Z,12.79
2023-05-08T08:10:45.672Z,12.78
2023-05-08T08:11:44.693Z,12.92
2023-05-08T08:12:44.840Z,12.95
2023-05-08T08:13:44.657Z,13.05
2023-05-08T08:14:44.648Z,13.07
2023-05-08T08:15:44.657Z,13.17
2023-05-08T08:16:44.690Z,13.30
2023-05-08T08:17:44.655Z,13.60
2023-05-08T08:18:44.608Z,13.63
2023-05-08T08:19:44.603Z,13.73
2023-05-08T08:20:44.634Z,13.89
2023-05-08T08:21:44.593Z,13.82
2023-05-08T08:22:44.545Z,13.97
2023-05-08T08:23:44.589Z,14.14
2023-05-08T08:24:44.528Z,14.29
2023-05-08T08:25:44.538Z,14.24
2023-05-08T08:26:44.521Z,14.06
2023-05-08T08:27:44.510Z,14.36
2023-05-08T08:28:44.614Z,14.18
2023-05-08T08:29:44.500Z,14.28
2023-05-08T08:30:44.479Z,13.67
2023-05-08T08:31:44.512Z,13.23
2023-05-08T08:32:44.581Z,13.14
2023-05-08T08:33:44.438Z,13.45
2023-05-08T08:34:44.468Z,13.66
2023-05-08T08:35:44.432Z,13.79
2023-05-08T08:36:44.424Z,13.91
2023-05-08T08:37:44.411Z,14.22
2023-05-08T08:38:44.424Z,14.24
2023-05-08T08:39:44.445Z,14.17
2023-05-08T08:40:44.383Z,14.21
2023-05-08T08:41:44.357Z,13.84
2023-05-08T08:42:44.389Z,13.82
2023-05-08T08:43:44.364Z,13.73
2023-05-08T08:44:44.429Z,13.78
2023-05-08T08:45:44.405Z,13.69
2023-05-08T08:46:44.371Z,13.96
2023-05-08T08:47:44.317Z,14.42
2023-05-08T08:48:44.314Z,14.70
2023-05-08T08:49:44.295Z,14.77
2023-05-08T08:50:45.078Z,14.81
2023-05-08T08:51:44.252Z,15.01
2023-05-08T08:52:44.245Z,15.19
2023-05-08T08:53:44.238Z,15.29
2023-05-08T08:54:44.231Z,14.89
2023-05-08T08:55:44.229Z,15.01
2023-05-08T08:56:44.224Z,15.19
2023-05-08T08:57:44.191Z,15.29
2023-05-08T08:58:44.189Z,15.20
2023-05-08T08:59:44.901Z,15.21
2023-05-08T09:00:44.230Z,15.09
2023-05-08T09:01:44.233Z,15.16
2023-05-08T09:02:44.157Z,15.03
2023-05-08T09:03:44.672Z,15.09
2023-05-08T09:04:44.105Z,15.35
2023-05-08T09:05:44.132Z,15.62
2023-05-08T09:06:44.108Z,15.54
2023-05-08T09:07:44.084Z,15.87
2023-05-08T09:08:44.098Z,15.71
2023-05-08T09:09:44.059Z,15.49
2023-05-08T09:10:44.048Z,16.02
2023-05-08T09:11:44.110Z,16.09
2023-05-08T09:12:44.054Z,16.14
2023-05-08T09:13:44.001Z,16.12
2023-05-08T09:14:44.026Z,16.20
2023-05-08T09:15:43.980Z,16.15
2023-05-08T09:16:44.210Z,15.75
2023-05-08T09:17:43.993Z,15.46
2023-05-08T09:18:43.956Z,15.19
2023-05-08T09:19:43.952Z,15.17
2023-05-08T09:20:43.931Z,15.31
2023-05-08T09:21:43.916Z,15.21
2023-05-08T09:22:43.931Z,15.36
2023-05-08T09:23:43.926Z,15.39
2023-05-08T09:24:43.917Z,15.56
2023-05-08T09:25:43.873Z,15.76
2023-05-08T09:26:43.875Z,15.49
2023-05-08T09:27:43.875Z,15.44
2023-05-08T09:28:43.864Z,15.69
2023-05-08T09:29:43.855Z,15.62
2023-05-08T09:30:43.876Z,15.31
2023-05-08T09:31:43.869Z,15.69
2023-05-08T09:32:43.964Z,15.83
2023-05-08T09:33:43.814Z,15.80
2023-05-08T09:34:43.774Z,15.82
2023-05-08T09:35:43.773Z,15.47
2023-05-08T09:36:43.771Z,15.68
2023-05-08T09:37:43.859Z,16.01
2023-05-08T09:38:43.756Z,16.04
2023-05-08T09:39:43.770Z,16.12
2023-05-08T09:40:43.714Z,15.89
2023-05-08T09:41:43.699Z,15.92
2023-05-08T09:42:43.947Z,15.69
2023-05-08T09:43:43.764Z,15.83
2023-05-08T09:44:43.661Z,15.60
2023-05-08T09:45:43.722Z,15.57
2023-05-08T09:46:43.648Z,15.74
2023-05-08T09:47:43.694Z,16.49
2023-05-08T09:48:43.777Z,16.70
2023-05-08T09:49:43.599Z,16.79
2023-05-08T09:50:43.799Z,16.88
2023-05-08T09:51:43.612Z,16.09
2023-05-08T09:52:43.572Z,16.43
2023-05-08T09:53:43.575Z,16.73
2023-05-08T09:54:43.578Z,16.31
2023-05-08T09:55:43.566Z,16.34
2023-05-08T09:56:43.555Z,16.41
2023-05-08T09:57:43.513Z,16.76
2023-05-08T09:58:43.504Z,17.07
2023-05-08T09:59:43.512Z,16.96
2023-05-08T10:00:43.519Z,16.98
2023-05-08T10:01:43.614Z,16.93
2023-05-08T10:02:43.510Z,16.88
2023-05-08T10:03:43.459Z,17.06
2023-05-08T10:04:43.449Z,16.97
2023-05-08T10:05:43.447Z,16.86
2023-05-08T10:06:43.413Z,16.76
2023-05-08T10:07:43.394Z,16.07
2023-05-08T10:08:43.389Z,16.08
2023-05-08T10:09:50.744Z,16.14
2023-05-08T10:10:43.406Z,15.94
2023-05-08T10:11:43.348Z,15.74
2023-05-08T10:12:43.397Z,15.78
2023-05-08T10:13:43.319Z,15.89
2023-05-08T10:14:46.210Z,16.25
2023-05-08T10:15:43.499Z,16.71
2023-05-08T10:16:43.519Z,16.63
2023-05-08T10:17:43.317Z,16.58
2023-05-08T10:18:43.264Z,16.78
2023-05-08T10:19:43.262Z,16.67
2023-05-08T10:20:43.325Z,16.38
2023-05-08T10:21:43.261Z,15.94
2023-05-08T10:22:43.218Z,15.96
2023-05-08T10:23:43.214Z,16.23
2023-05-08T10:24:43.188Z,15.93
2023-05-08T10:25:43.187Z,15.74
2023-05-08T10:26:53.720Z,15.78
2023-05-08T10:27:43.146Z,16.23
2023-05-08T10:28:43.174Z,16.34
2023-05-08T10:29:43.139Z,16.28
2023-05-08T10:30:43.160Z,16.24
2023-05-08T10:31:43.216Z,16.42
2023-05-08T10:32:43.148Z,16.50
2023-05-08T10:33:43.093Z,16.83
2023-05-08T10:34:43.104Z,16.76
2023-05-08T10:35:43.062Z,16.70
2023-05-08T10:36:43.160Z,16.68
2023-05-08T10:37:43.080Z,17.00
2023-05-08T10:38:43.041Z,17.19
2023-05-08T10:39:43.021Z,17.08
2023-05-08T10:40:43.004Z,16.93
2023-05-08T10:41:42.988Z,17.18
2023-05-08T10:42:43.020Z,17.37
2023-05-08T10:43:42.995Z,17.49
2023-05-08T10:44:42.992Z,17.54
2023-05-08T10:45:42.954Z,17.44
2023-05-08T10:46:43.016Z,17.37
2023-05-08T10:47:45.907Z,17.58
2023-05-08T10:48:42.914Z,17.31
2023-05-08T10:49:43.189Z,17.26
2023-05-08T10:50:42.898Z,16.53
2023-05-08T10:51:44.104Z,16.38
2023-05-08T10:52:42.871Z,16.61
2023-05-08T10:53:42.857Z,16.78
2023-05-08T10:54:42.838Z,17.07
2023-05-08T10:55:42.815Z,17.51
2023-05-08T10:56:43.286Z,17.30
2023-05-08T10:57:42.813Z,17.11
2023-05-08T10:58:43.020Z,17.34
2023-05-08T10:59:42.765Z,17.34
2023-05-08T11:00:42.768Z,17.36
2023-05-08T11:01:42.800Z,16.76
2023-05-08T11:02:42.860Z,17.15
2023-05-08T11:03:42.886Z,17.11
2023-05-08T11:04:42.861Z,16.85
2023-05-08T11:05:42.715Z,16.78
2023-05-08T11:06:42.703Z,17.11
2023-05-08T11:07:42.710Z,17.19
2023-05-08T11:08:42.660Z,17.38
2023-05-08T11:09:42.651Z,17.48
2023-05-08T11:10:42.634Z,17.21
2023-05-08T11:11:42.628Z,17.56
2023-05-08T11:12:42.774Z,17.62
2023-05-08T11:13:42.614Z,17.77
2023-05-08T11:14:42.582Z,18.15
2023-05-08T11:15:42.677Z,18.35
2023-05-08T11:16:42.739Z,17.64
2023-05-08T11:17:42.579Z,17.79
2023-05-08T11:18:49.410Z,18.25
2023-05-08T11:19:44.530Z,18.42
2023-05-08T11:20:42.521Z,18.84
2023-05-08T11:21:42.503Z,18.87
2023-05-08T11:22:42.498Z,18.88
2023-05-08T11:23:42.500Z,18.81
2023-05-08T11:24:42.455Z,18.62
2023-05-08T11:25:42.448Z,18.82
2023-05-08T11:26:42.446Z,18.48
2023-05-08T11:27:42.431Z,18.47
2023-05-08T11:28:42.455Z,18.27
2023-05-08T11:29:42.424Z,18.48
2023-05-08T11:30:42.392Z,18.87
2023-05-08T11:31:42.409Z,18.87
2023-05-08T11:32:42.391Z,18.44
2023-05-08T11:33:42.384Z,18.52
2023-05-08T11:34:42.723Z,18.44
2023-05-08T11:35:42.384Z,18.52
2023-05-08T11:36:42.333Z,18.55
2023-05-08T11:37:42.301Z,18.70
2023-05-08T11:38:42.344Z,19.04
2023-05-08T11:39:42.271Z,18.99
2023-05-08T11:40:42.274Z,18.75
2023-05-08T11:41:42.268Z,18.65
2023-05-08T11:42:42.233Z,18.52
2023-05-08T11:43:42.271Z,18.65
2023-05-08T11:44:42.876Z,18.75
2023-05-08T11:45:42.203Z,18.44
2023-05-08T11:46:42.247Z,18.65
2023-05-08T11:47:42.231Z,18.44
2023-05-08T11:48:42.206Z,18.52
2023-05-08T11:49:42.178Z,18.80
2023-05-08T11:50:42.156Z,18.87
2023-05-08T11:51:42.132Z,18.47
2023-05-08T11:52:42.145Z,18.88
2023-05-08T11:53:42.713Z,19.29
2023-05-08T11:54:42.116Z,19.33
2023-05-08T11:55:42.091Z,19.31
2023-05-08T11:56:42.077Z,19.77
2023-05-08T11:57:42.062Z,20.03
2023-05-08T11:58:42.050Z,19.59
2023-05-08T11:59:42.071Z,19.29
2023-05-08T12:00:42.042Z,18.99
2023-05-08T12:01:43.430Z,18.99
2023-05-08T12:02:42.079Z,18.76
2023-05-08T12:03:42.189Z,19.07
2023-05-08T12:04:42.028Z,18.91
2023-05-08T12:05:41.974Z,18.63
2023-05-08T12:06:41.937Z,18.27
2023-05-08T12:07:41.937Z,18.32
2023-05-08T12:08:41.910Z,18.37
2023-05-08T12:09:41.906Z,18.32
2023-05-08T12:10:41.939Z,18.55
2023-05-08T12:11:41.881Z,18.80
2023-05-08T12:12:42.021Z,18.48
2023-05-08T12:13:41.860Z,18.80
2023-05-08T12:14:41.836Z,18.81
2023-05-08T12:15:41.884Z,19.04
2023-05-08T12:16:41.867Z,18.70
2023-05-08T12:17:41.879Z,18.88
2023-05-08T12:18:41.795Z,18.81
2023-05-08T12:19:41.786Z,18.44
2023-05-08T12:20:41.765Z,18.36
2023-05-08T12:21:41.787Z,18.67
2023-05-08T12:22:41.759Z,18.95
2023-05-08T12:23:41.720Z,19.00
2023-05-08T12:24:41.713Z,19.23
2023-05-08T12:25:41.700Z,19.43
2023-05-08T12:26:41.728Z,19.02
2023-05-08T12:27:41.680Z,18.62
2023-05-08T12:28:41.668Z,18.55
2023-05-08T12:29:41.656Z,19.14
2023-05-08T12:30:41.655Z,19.46
2023-05-08T12:31:41.779Z,19.48
2023-05-08T12:32:41.635Z,19.02
2023-05-08T12:33:41.629Z,18.84
2023-05-08T12:34:41.596Z,19.06
2023-05-08T12:35:41.588Z,19.23
2023-05-08T12:36:41.579Z,19.25
2023-05-08T12:37:41.628Z,19.11
2023-05-08T12:38:41.558Z,19.25
2023-05-08T12:39:41.553Z,18.99
2023-05-08T12:40:41.514Z,19.07
2023-05-08T12:41:41.519Z,19.23
2023-05-08T12:42:41.558Z,19.22
2023-05-08T12:43:41.483Z,19.55
2023-05-08T12:44:41.554Z,19.78
2023-05-08T12:45:41.480Z,20.01
2023-05-08T12:46:41.465Z,19.88
2023-05-08T12:47:41.500Z,20.14
2023-05-08T12:48:41.550Z,19.47
2023-05-08T12:49:41.442Z,19.65
2023-05-08T12:50:41.406Z,19.62
2023-05-08T12:51:41.390Z,19.73
2023-05-08T12:52:41.379Z,19.50
2023-05-08T12:53:41.385Z,19.51
2023-05-08T12:54:41.390Z,19.87
2023-05-08T12:55:41.388Z,19.84
2023-05-08T12:56:41.346Z,19.69
2023-05-08T12:57:41.317Z,18.94
2023-05-08T12:58:41.331Z,19.11
2023-05-08T12:59:41.304Z,19.26
2023-05-08T13:00:41.402Z,19.80
2023-05-08T13:01:41.284Z,20.29
2023-05-08T13:02:49.258Z,19.94